Data for 10/03/2013

Time Sea-Level Adjusted Pressure Absolute Pressure Temperature Relative Humidity Dew Point   
(mb) (inHg) (mb) (inHg) (C) (F) (%) (C) (F)
00:05 1014 29.94 843 24.89 3.9 39 79 0.6 33.2
00:10 1014 29.94 843 24.89 3.6 38.5 81 0.6 33.1
00:15 1014 29.94 843 24.89 3.5 38.3 81 0.6 33.1
00:20 1014 29.94 843 24.89 3.5 38.2 82 0.7 33.2
00:25 1014 29.94 843 24.89 3.4 38.2 82 0.7 33.2
00:30 1014 29.94 843 24.89 3.4 38.1 82 0.6 33
00:35 1014 29.94 843 24.89 3.4 38.1 81 0.5 32.8
00:40 1014 29.94 843 24.89 3.3 38 83 0.7 33.3
00:45 1014 29.94 843 24.89 3.2 37.7 83 0.6 33.1
00:50 1014 29.94 843 24.89 3.2 37.7 83 0.6 33
00:55 1014 29.94 843 24.89 3.2 37.7 83 0.5 33
01:00 1014 29.94 843 24.89 3.1 37.7 83 0.6 33
01:05 1014 29.94 843 24.89 3.1 37.6 83 0.4 32.8
01:10 1014 29.94 843 24.89 3.1 37.5 83 0.5 32.9
01:15 1014 29.94 843 24.89 2.9 37.3 84 0.5 32.8
01:20 1014 29.94 843 24.89 2.9 37.2 85 0.5 33
01:25 1014 29.94 843 24.89 2.8 37 85 0.5 32.8
01:30 1014 29.94 843 24.89 2.8 37 84 0.4 32.7
01:35 1014 29.94 843 24.89 2.7 36.9 85 0.4 32.7
01:40 1014 29.94 843 24.89 2.6 36.7 85 0.4 32.7
01:45 1014 29.94 843 24.89 2.5 36.6 85 0.3 32.6
01:50 1014 29.94 843 24.89 2.5 36.5 86 0.4 32.6
01:55 1014 29.94 843 24.89 2.5 36.4 85 0.1 32.2
02:00 1014 29.94 843 24.89 2.5 36.5 84 0.1 32.1
02:05 1014 29.94 843 24.89 2.5 36.5 84 0.1 32.2
02:10 1014 29.94 843 24.89 2.5 36.5 84 0 32.1
02:15 1014 29.94 843 24.89 2.5 36.6 83 -0 32
02:20 1014 29.94 843 24.89 2.5 36.6 83 0 32
02:25 1014 29.94 843 24.89 2.5 36.6 83 -0.1 31.9
02:30 1014 29.94 843 24.89 2.5 36.6 83 -0.1 31.9
02:35 1014 29.94 843 24.89 2.6 36.7 83 -0 32
02:40 1014 29.94 843 24.89 2.6 36.7 82 -0.1 31.8
02:45 1014 29.94 843 24.89 2.7 36.8 82 -0.1 31.8
02:50 1013 29.91 843 24.89 2.6 36.7 81 -0.2 31.6
02:55 1013 29.91 843 24.89 2.6 36.7 81 -0.3 31.4
03:00 1013 29.91 843 24.89 2.6 36.6 82 -0.3 31.5
03:05 1013 29.91 842 24.86 2.5 36.5 81 -0.4 31.2
03:10 1013 29.91 843 24.89 2.4 36.3 82 -0.3 31.4
03:15 1013 29.91 843 24.89 2.3 36.2 81 -0.5 31
03:20 1013 29.91 843 24.89 2.3 36.1 81 -0.6 30.9
03:25 1013 29.91 843 24.89 2.3 36.1 82 -0.5 31
03:30 1013 29.91 843 24.89 2.2 36 82 -0.6 30.9
03:35 1013 29.91 843 24.89 2.1 35.8 82 -0.6 30.9
03:40 1013 29.91 843 24.89 2 35.6 83 -0.6 30.9
03:45 1013 29.91 843 24.89 1.9 35.4 84 -0.5 31.1
03:50 1013 29.91 842 24.86 1.6 34.9 86 -0.5 31.2
03:55 1013 29.91 842 24.86 1.5 34.6 86 -0.6 30.9
04:00 1013 29.91 842 24.86 1.4 34.5 87 -0.6 30.9
04:05 1013 29.91 843 24.89 1.3 34.4 86 -0.8 30.6
04:10 1013 29.91 843 24.89 1.3 34.4 85 -0.9 30.4
04:15 1013 29.91 843 24.89 1.4 34.4 84 -1 30.2
04:20 1013 29.91 842 24.86 1.4 34.5 85 -0.9 30.5
04:25 1013 29.91 842 24.86 1.4 34.5 84 -1 30.3
04:30 1013 29.91 842 24.86 1.4 34.6 83 -1.1 30
04:35 1013 29.91 842 24.86 1.4 34.5 85 -0.9 30.3
04:40 1013 29.91 842 24.86 1.4 34.6 84 -1 30.3
04:45 1013 29.91 843 24.89 1.4 34.6 84 -1 30.3
04:50 1014 29.94 843 24.89 1.4 34.6 83 -1.1 30
04:55 1014 29.94 843 24.89 1.5 34.6 83 -1.1 30.1
05:00 1014 29.94 843 24.89 1.5 34.6 84 -1 30.3
05:05 1014 29.94 843 24.89 1.5 34.7 83 -1 30.2
05:10 1014 29.94 843 24.89 1.5 34.7 85 -0.8 30.6
05:15 1014 29.94 843 24.89 1.5 34.8 84 -0.8 30.5
05:20 1014 29.94 843 24.89 1.6 34.9 84 -0.8 30.5
05:25 1013 29.91 843 24.89 1.7 35.1 83 -0.9 30.5
05:30 1013 29.91 843 24.89 1.8 35.3 83 -0.8 30.6
05:35 1013 29.91 843 24.89 1.9 35.4 83 -0.6 30.9
05:40 1014 29.94 843 24.89 1.8 35.2 84 -0.6 30.9
05:45 1014 29.94 843 24.89 1.7 35 84 -0.7 30.8
05:50 1014 29.94 843 24.89 1.7 35.1 84 -0.7 30.8
05:55 1013 29.91 843 24.89 1.7 35 85 -0.6 30.9
06:00 1013 29.91 843 24.89 1.7 35 85 -0.7 30.8
06:05 1014 29.94 843 24.89 1.8 35.3 83 -0.7 30.7
06:10 1014 29.94 843 24.89 1.8 35.2 85 -0.5 31.1
06:15 1014 29.94 843 24.89 1.6 34.9 86 -0.5 31.1
06:20 1014 29.94 843 24.89 1.5 34.8 86 -0.5 31.1
06:25 1014 29.94 843 24.89 1.5 34.7 87 -0.5 31.1
06:30 1014 29.94 843 24.89 1.5 34.7 87 -0.5 31.1
06:35 1014 29.94 843 24.89 1.5 34.7 87 -0.5 31
06:40 1014 29.94 843 24.89 1.4 34.5 88 -0.4 31.2
06:45 1014 29.94 843 24.89 1.3 34.4 87 -0.7 30.8
06:50 1014 29.94 843 24.89 1.3 34.3 87 -0.6 30.9
06:55 1014 29.94 843 24.89 1.2 34.2 86 -0.9 30.4
07:00 1014 29.94 843 24.89 1.2 34.2 85 -0.9 30.3
07:05 1014 29.94 843 24.89 1.2 34.2 85 -1.1 30.1
07:10 1014 29.94 843 24.89 1.2 34.2 85 -1.1 30
07:15 1014 29.94 843 24.89 1.3 34.3 83 -1.2 29.8
07:20 1014 29.94 843 24.89 1.3 34.4 83 -1.3 29.7
07:25 1014 29.94 843 24.89 1.3 34.4 83 -1.3 29.7
07:30 1014 29.94 843 24.89 1.2 34.2 83 -1.3 29.7
07:35 1014 29.94 843 24.89 1.3 34.3 83 -1.4 29.6
07:40 1014 29.94 843 24.89 1.3 34.3 82 -1.4 29.4
07:45 1014 29.94 843 24.89 1.3 34.4 82 -1.4 29.5
07:50 1014 29.94 844 24.92 1.4 34.4 82 -1.5 29.4
07:55 1014 29.94 844 24.92 1.5 34.7 82 -1.3 29.6
08:00 1014 29.94 844 24.92 1.5 34.8 81 -1.4 29.4
08:05 1015 29.97 844 24.92 1.6 34.9 80 -1.5 29.3
08:10 1014 29.94 844 24.92 1.8 35.2 79 -1.4 29.5
08:15 1015 29.97 844 24.92 1.9 35.4 80 -1.2 29.9
08:20 1015 29.97 844 24.92 1.9 35.5 81 -1 30.1
08:25 1015 29.97 844 24.92 1.8 35.3 82 -0.9 30.3
08:30 1015 29.97 844 24.92 1.7 35 84 -0.7 30.8
08:35 1015 29.97 844 24.92 1.7 35.1 85 -0.5 31.1
08:40 1015 29.97 844 24.92 1.8 35.3 84 -0.6 31
08:45 1015 29.97 844 24.92 2 35.7 84 -0.3 31.4
08:50 1015 29.97 844 24.92 2.1 35.8 81 -0.8 30.6
08:55 1015 29.97 844 24.92 2 35.6 84 -0.5 31.1
09:00 1015 29.97 845 24.95 1.8 35.3 83 -0.8 30.5
09:05 1016 30 845 24.95 1.7 35.1 84 -0.8 30.6
09:10 1016 30 845 24.95 1.6 34.9 85 -0.7 30.8
09:15 1016 30 845 24.95 1.5 34.8 84 -0.8 30.5
09:20 1016 30 845 24.95 1.6 34.8 85 -0.7 30.8
09:25 1016 30 845 24.95 1.6 35 83 -0.9 30.4
09:30 1016 30 845 24.95 1.7 35 84 -0.7 30.8
09:35 1016 30 845 24.95 1.6 34.9 85 -0.7 30.8
09:40 1016 30 846 24.98 1.7 35 85 -0.6 30.8
09:45 1016 30 846 24.98 1.7 35.1 85 -0.6 31
09:50 1017 30.03 846 24.98 1.7 35.1 85 -0.6 30.9
09:55 1017 30.03 846 24.98 1.7 35.1 85 -0.5 31.1
10:00 1017 30.03 846 24.98 1.7 35.1 86 -0.4 31.3
10:05 1017 30.03 846 24.98 1.6 35 86 -0.5 31.1
10:10 1017 30.03 846 24.98 1.7 35.1 85 -0.5 31
10:15 1017 30.03 846 24.98 1.9 35.5 86 -0.2 31.6
10:20 1017 30.03 846 24.98 2.1 35.8 83 -0.5 31.1
10:25 1017 30.03 846 24.98 2.3 36.2 82 -0.4 31.3
10:30 1017 30.03 846 24.98 2.3 36.1 83 -0.3 31.5
10:35 1017 30.03 846 24.98 2 35.6 86 -0.2 31.7
10:40 1017 30.03 846 24.98 1.5 34.7 88 -0.2 31.6
10:45 1017 30.03 847 25.01 1 33.7 89 -0.6 30.9
10:50 1017 30.03 847 25.01 0.7 33.3 90 -0.7 30.8
10:55 1018 30.06 847 25.01 0.5 33 91 -0.7 30.7
11:00 1018 30.06 847 25.01 0.4 32.7 92 -0.7 30.7
11:05 1018 30.06 847 25.01 0.3 32.5 92 -0.8 30.5
11:10 1018 30.06 847 25.01 0.2 32.4 92 -0.9 30.4
11:15 1018 30.06 847 25.01 0.2 32.4 93 -0.9 30.5
11:20 1018 30.06 847 25.01 0.2 32.4 92 -0.9 30.4
11:25 1018 30.06 847 25.01 0.2 32.4 92 -0.9 30.3
11:30 1018 30.06 847 25.01 0.2 32.4 93 -0.8 30.5
11:35 1018 30.06 847 25.01 0.2 32.3 93 -0.8 30.6
11:40 1018 30.06 847 25.01 0.1 32.2 94 -0.7 30.7
11:45 1018 30.06 847 25.01 0.1 32.2 94 -0.7 30.7
11:50 1018 30.06 847 25.01 0.2 32.3 94 -0.6 30.9
11:55 1018 30.06 847 25.01 0.3 32.5 94 -0.5 31
12:00 1018 30.06 847 25.01 0.3 32.6 94 -0.5 31.1
12:05 1018 30.06 847 25.01 0.4 32.8 94 -0.4 31.2
12:10 1018 30.06 847 25.01 0.6 33.1 94 -0.2 31.6
12:15 1018 30.06 847 25.01 1 33.9 92 -0.2 31.7
12:20 1018 30.06 847 25.01 1.6 34.8 92 0.3 32.6
12:25 1018 30.06 848 25.04 1.7 35.1 91 0.4 32.8
12:30 1018 30.06 848 25.04 1.8 35.2 90 0.3 32.5
12:35 1018 30.06 848 25.04 1.5 34.7 90 0.1 32.2
12:40 1018 30.06 848 25.04 1.3 34.4 90 -0.2 31.7
12:45 1019 30.09 848 25.04 1.2 34.2 90 -0.2 31.6
12:50 1019 30.09 848 25.04 1.2 34.1 90 -0.3 31.5
12:55 1019 30.09 848 25.04 1.2 34.2 90 -0.3 31.4
13:00 1019 30.09 848 25.04 1.2 34.1 89 -0.4 31.2
13:05 1019 30.09 848 25.04 1.2 34.1 89 -0.4 31.3
13:10 1019 30.09 848 25.04 1.1 34 89 -0.6 31
13:15 1019 30.09 848 25.04 1 33.8 92 -0.2 31.6
13:20 1019 30.09 848 25.04 0.7 33.3 93 -0.3 31.5
13:25 1019 30.09 849 25.07 0.4 32.7 94 -0.4 31.3
13:30 1019 30.09 849 25.07 0.3 32.6 95 -0.4 31.3
13:35 1019 30.09 849 25.07 0.4 32.8 95 -0.3 31.5
13:40 1020 30.12 849 25.07 0.4 32.7 95 -0.4 31.3
13:45 1020 30.12 849 25.07 0.2 32.4 95 -0.5 31.2
13:50 1020 30.12 849 25.07 0.2 32.4 95 -0.5 31.2
13:55 1020 30.12 849 25.07 0.3 32.5 95 -0.4 31.3
14:00 1020 30.12 849 25.07 0.4 32.8 96 -0.2 31.6
14:05 1020 30.12 849 25.07 0.5 32.9 95 -0.2 31.7
14:10 1020 30.12 849 25.07 0.5 32.9 95 -0.2 31.6
14:15 1020 30.12 849 25.07 0.5 33 95 -0.1 31.7
14:20 1020 30.12 849 25.07 0.6 33 95 -0.2 31.6
14:25 1020 30.12 849 25.07 0.5 32.9 95 -0.2 31.6
14:30 1020 30.12 849 25.07 0.6 33.1 95 -0.1 31.8
14:35 1020 30.12 850 25.1 0.7 33.2 94 -0.1 31.7
14:40 1020 30.12 850 25.1 0.6 33.1 95 -0.2 31.7
14:45 1021 30.15 850 25.1 0.7 33.3 94 -0.1 31.7
14:50 1021 30.15 850 25.1 0.6 33.1 94 -0.2 31.6
14:55 1021 30.15 850 25.1 0.6 33.1 94 -0.3 31.5
15:00 1021 30.15 850 25.1 0.5 33 94 -0.3 31.4
15:05 1021 30.15 850 25.1 0.6 33.1 94 -0.2 31.6
15:10 1021 30.15 850 25.1 0.6 33.1 94 -0.3 31.5
15:15 1021 30.15 850 25.1 0.5 32.9 94 -0.4 31.4
15:20 1021 30.15 850 25.1 0.4 32.8 94 -0.4 31.2
15:25 1021 30.15 850 25.1 0.3 32.6 94 -0.4 31.2
15:30 1021 30.15 850 25.1 0.4 32.7 95 -0.4 31.3
15:35 1021 30.15 850 25.1 0.3 32.6 95 -0.4 31.2
15:40 1021 30.15 850 25.1 0.4 32.7 94 -0.4 31.2
15:45 1021 30.15 851 25.13 0.3 32.6 94 -0.5 31.2
15:50 1021 30.15 851 25.13 0.2 32.4 95 -0.6 31
15:55 1021 30.15 851 25.13 0.2 32.3 95 -0.5 31
16:00 1022 30.18 851 25.13 0.2 32.3 95 -0.5 31
16:05 1022 30.18 851 25.13 0.2 32.3 95 -0.5 31.1
16:10 1022 30.18 851 25.13 0.2 32.4 95 -0.5 31.2
16:15 1022 30.18 851 25.13 0.2 32.3 95 -0.5 31.1
16:20 1022 30.18 851 25.13 0.1 32.1 96 -0.6 31
16:25 1022 30.18 851 25.13 0 32 96 -0.6 30.9
16:30 1022 30.18 851 25.13 0 32 96 -0.6 31
16:35 1022 30.18 851 25.13 0.1 32.1 96 -0.5 31.1
16:40 1022 30.18 851 25.13 0.2 32.3 96 -0.4 31.2
16:45 1022 30.18 851 25.13 0.3 32.6 96 -0.3 31.5
16:50 1022 30.18 851 25.13 0.3 32.6 96 -0.3 31.5
16:55 1022 30.18 851 25.13 0.3 32.5 95 -0.4 31.4
17:00 1022 30.18 851 25.13 0.2 32.3 95 -0.5 31.2
17:05 1022 30.18 851 25.13 0.2 32.3 96 -0.5 31.2
17:10 1022 30.18 851 25.13 0.2 32.4 96 -0.4 31.3
17:15 1022 30.18 852 25.16 0.3 32.6 96 -0.3 31.5
17:20 1022 30.18 852 25.16 0.4 32.7 96 -0.2 31.6
17:25 1023 30.21 852 25.16 0.3 32.6 96 -0.3 31.5
17:30 1023 30.21 852 25.16 0.3 32.5 96 -0.3 31.4
17:35 1023 30.21 852 25.16 0.2 32.4 96 -0.4 31.3
17:40 1023 30.21 852 25.16 0.1 32.3 96 -0.5 31.2
17:45 1023 30.21 852 25.16 0.1 32.1 96 -0.6 31
17:50 1023 30.21 852 25.16 -0 31.9 96 -0.7 30.8
17:55 1023 30.21 853 25.19 -0.1 31.9 95 -0.7 30.7
18:00 1023 30.21 853 25.19 -0.1 31.8 95 -0.8 30.6
18:05 1024 30.24 853 25.19 -0.1 31.8 96 -0.7 30.7
18:10 1024 30.24 853 25.19 -0.1 31.8 96 -0.7 30.7
18:15 1024 30.24 853 25.19 -0.2 31.7 96 -0.7 30.7
18:20 1024 30.24 853 25.19 -0.3 31.5 96 -0.8 30.5
18:25 1024 30.24 853 25.19 -0.3 31.4 96 -0.9 30.4
18:30 1024 30.24 853 25.19 -0.4 31.3 96 -0.9 30.3
18:35 1024 30.24 853 25.19 -0.4 31.2 96 -0.9 30.3
18:40 1024 30.24 853 25.19 -0.4 31.3 97 -0.9 30.4
18:45 1024 30.24 853 25.19 -0.4 31.3 96 -0.9 30.4
18:50 1024 30.24 853 25.19 -0.4 31.3 97 -0.9 30.5
18:55 1024 30.24 853 25.19 -0.4 31.4 97 -0.8 30.5
19:00 1024 30.24 853 25.19 -0.3 31.4 97 -0.8 30.6
19:05 1024 30.24 853 25.19 -0.3 31.5 97 -0.8 30.6
19:10 1024 30.24 853 25.19 -0.2 31.6 97 -0.7 30.7
19:15 1024 30.24 853 25.19 -0.2 31.7 97 -0.7 30.8
19:20 1024 30.24 853 25.19 -0.2 31.7 97 -0.7 30.8
19:25 1024 30.24 853 25.19 -0.2 31.7 97 -0.6 30.9
19:30 1024 30.24 853 25.19 -0.2 31.7 97 -0.6 30.9
19:35 1024 30.24 853 25.19 -0.1 31.7 97 -0.6 30.9
19:40 1024 30.24 854 25.22 -0.1 31.8 97 -0.6 30.9
19:45 1025 30.27 854 25.22 -0.1 31.7 97 -0.6 30.9
19:50 1025 30.27 854 25.22 -0.2 31.7 97 -0.6 30.9
19:55 1025 30.27 854 25.22 -0.2 31.7 97 -0.6 30.9
20:00 1025 30.27 854 25.22 -0.2 31.7 97 -0.7 30.8
20:05 1025 30.27 854 25.22 -0.2 31.6 97 -0.7 30.8
20:10 1025 30.27 854 25.22 -0.2 31.7 97 -0.7 30.8
20:15 1025 30.27 854 25.22 -0.2 31.6 97 -0.7 30.8
20:20 1025 30.27 854 25.22 -0.2 31.6 97 -0.7 30.8
20:25 1025 30.27 854 25.22 -0.2 31.6 97 -0.7 30.7
20:30 1025 30.27 854 25.22 -0.3 31.5 97 -0.7 30.7
20:35 1025 30.27 854 25.22 -0.3 31.5 97 -0.7 30.7
20:40 1025 30.27 854 25.22 -0.4 31.4 97 -0.8 30.5
20:45 1025 30.27 854 25.22 -0.5 31.2 96 -1 30.3
20:50 1025 30.27 854 25.22 -0.5 31.1 97 -1 30.2
20:55 1025 30.27 854 25.22 -0.5 31.1 97 -1 30.2
21:00 1025 30.27 854 25.22 -0.6 31 97 -1.1 30.1
21:05 1025 30.27 854 25.22 -0.6 30.9 97 -1.1 30.1
21:10 1025 30.27 854 25.22 -0.6 30.9 97 -1.1 30.1
21:15 1025 30.27 854 25.22 -0.6 30.9 97 -1.1 30
21:20 1025 30.27 854 25.22 -0.6 30.8 97 -1.1 30
21:25 1025 30.27 854 25.22 -0.6 30.8 97 -1.1 30
21:30 1025 30.27 854 25.22 -0.7 30.8 97 -1.1 30
21:35 1025 30.27 854 25.22 -0.8 30.6 97 -1.2 29.8
21:40 1025 30.27 854 25.22 -0.7 30.7 97 -1.2 29.9
21:45 1025 30.27 854 25.22 -0.7 30.7 97 -1.2 29.9
21:50 1025 30.27 854 25.22 -0.7 30.7 97 -1.2 29.9
21:55 1025 30.27 854 25.22 -0.8 30.6 97 -1.2 29.8
22:00 1025 30.27 854 25.22 -0.8 30.5 97 -1.3 29.7
22:05 1025 30.27 854 25.22 -0.8 30.5 97 -1.3 29.7
22:10 1025 30.27 854 25.22 -0.9 30.4 97 -1.3 29.6
22:15 1025 30.27 854 25.22 -0.9 30.4 97 -1.3 29.6
22:20 1025 30.27 854 25.22 -0.9 30.4 97 -1.3 29.6
22:25 1025 30.27 855 25.25 -0.9 30.4 97 -1.4 29.6
22:30 1026 30.3 855 25.25 -0.9 30.5 97 -1.3 29.6
22:35 1025 30.27 855 25.25 -0.9 30.4 97 -1.3 29.6
22:40 1025 30.27 855 25.25 -0.9 30.4 97 -1.3 29.6
22:45 1025 30.27 855 25.25 -0.9 30.4 97 -1.3 29.6
22:50 1025 30.27 855 25.25 -0.9 30.4 97 -1.4 29.5
22:55 1025 30.27 855 25.25 -0.9 30.4 97 -1.3 29.6
23:00 1026 30.3 855 25.25 -0.9 30.4 97 -1.4 29.5
23:05 1026 30.3 855 25.25 -0.9 30.4 97 -1.4 29.5
23:10 1026 30.3 855 25.25 -0.9 30.4 97 -1.4 29.5
23:15 1026 30.3 855 25.25 -0.9 30.4 97 -1.4 29.5
23:20 1026 30.3 855 25.25 -0.9 30.4 97 -1.4 29.5
23:25 1026 30.3 855 25.25 -0.9 30.4 97 -1.4 29.5
23:30 1026 30.3 855 25.25 -0.9 30.4 96 -1.4 29.4
23:35 1026 30.3 855 25.25 -0.9 30.3 96 -1.4 29.4
23:40 1026 30.3 855 25.25 -0.9 30.3 96 -1.4 29.4
23:45 1026 30.3 855 25.25 -0.9 30.3 96 -1.5 29.3
23:50 1026 30.3 855 25.25 -0.9 30.3 96 -1.5 29.3
23:55 1026 30.3 855 25.25 -0.9 30.3 96 -1.6 29.2
24:00 1026 30.3 855 25.25 -1 30.3 95 -1.6 29.1